»·PEaware :: N732SG KSEE-KSBD

N732SG :: KSEE-KSBD

FLIGHT INFORMATION

Flight Status: Arrived
Operator: Privately registered:
United States
More flights under this callsign
Pilot: Scott G. (88)
Aircraft: CESSNA 172 SKYHAWK
(C172)
More flights by this aircraft type
Origin: KSEE Gillespie
United States
Destination: KSBD San Bernardino Intl
United States
More flights between these airports :: More routes between these airports
Route: +SANN 19
File this flight plan on PilotEdge
Remarks: X-Plane 11 crashing often, FYI.
Altitude:
(Current/Filed)
6,000ft
Speed:
(Current/Filed)
110kts
Departed: 12-Jul-17 08:41 AM
Arrived: 12-Jul-17 09:40 AM
Distance/Time
Traveled:
77nm/0:59
Distance/Time
To Go:
Arrived

Flight Plot

Page will automatically refresh every two minutes.

Flight plan parsing failed; only flown route is shown


Map Options




Map Legend


Flown Route
Filed Route
Departure Airport
Arrival Airport
Navaid (VOR, NDB)
Fix

Horizontal Profiles

Position Reports

Time Latitude Longitude Heading Altitude Ground
Speed
12-Jul-17 08:34 32.824921 -116.968918 14 392ft 0kts
12-Jul-17 08:35 32.824921 -116.968918 14 392ft 0kts
12-Jul-17 08:36 32.824921 -116.968918 14 392ft 0kts
12-Jul-17 08:37 32.824922 -116.968918 14 392ft 0kts
12-Jul-17 08:38 32.824925 -116.968917 13 392ft 0kts
12-Jul-17 08:39 32.824726 -116.968159 100 392ft 10kts
12-Jul-17 08:40 32.824646 -116.966293 71 392ft 4kts
12-Jul-17 08:41 32.825484 -116.964029 311 392ft 0kts
12-Jul-17 08:42 32.825484 -116.964029 312 392ft 0kts
12-Jul-17 08:43 32.826460 -116.964636 279 392ft 0kts
12-Jul-17 08:44 32.829727 -116.982718 285 889ft 74kts
12-Jul-17 08:45 32.848497 -116.991353 352 1701ft 79kts
12-Jul-17 08:46 32.870554 -116.994926 352 2505ft 82kts
12-Jul-17 08:47 32.891178 -116.998246 352 3237ft 80kts
12-Jul-17 08:48 32.912109 -117.008477 322 3905ft 89kts
12-Jul-17 08:49 32.931306 -117.028325 316 4427ft 99kts
12-Jul-17 08:50 32.951279 -117.051747 314 4934ft 100kts
12-Jul-17 08:51 32.970485 -117.075346 313 5422ft 98kts
12-Jul-17 08:52 32.989236 -117.098765 312 5913ft 97kts
12-Jul-17 08:53 33.009514 -117.124266 313 6007ft 113kts
12-Jul-17 08:54 33.031562 -117.152013 313 5998ft 116kts
12-Jul-17 08:55 33.053782 -117.179997 313 5995ft 116kts
12-Jul-17 08:56 33.073920 -117.205372 313 5992ft 116kts
12-Jul-17 08:57 33.096199 -117.233449 313 5990ft 117kts
12-Jul-17 08:58 33.118336 -117.261372 313 5989ft 117kts
12-Jul-17 08:59 33.138801 -117.287177 313 5989ft 116kts
12-Jul-17 09:00 33.160844 -117.314958 313 5990ft 115kts
12-Jul-17 09:01 33.182872 -117.342733 313 5992ft 115kts
12-Jul-17 09:02 33.204906 -117.370515 313 5993ft 115kts
12-Jul-17 09:03 33.226880 -117.398215 313 5995ft 115kts
12-Jul-17 09:04 33.247959 -117.426324 319 5998ft 114kts
12-Jul-17 09:05 33.271448 -117.452114 316 5997ft 115kts
12-Jul-17 09:06 33.294539 -117.478560 316 5998ft 115kts
12-Jul-17 09:07 33.317480 -117.505164 315 5998ft 115kts
12-Jul-17 09:08 33.340395 -117.531844 315 5998ft 115kts
12-Jul-17 09:09 33.363328 -117.558602 315 5998ft 115kts
12-Jul-17 09:10 33.386213 -117.585332 315 5998ft 115kts
12-Jul-17 09:11 33.409065 -117.612045 315 6002ft 114kts
12-Jul-17 09:12 33.431821 -117.638668 315 6007ft 115kts
12-Jul-17 09:13 33.454591 -117.665328 315 6007ft 115kts
12-Jul-17 09:14 33.477447 -117.692112 315 6007ft 115kts
12-Jul-17 09:15 33.508100 -117.700937 350 6007ft 115kts
12-Jul-17 09:16 33.539936 -117.706533 351 6007ft 115kts
12-Jul-17 09:17 33.571750 -117.711948 351 6007ft 115kts
12-Jul-17 09:18 33.604072 -117.717338 350 6008ft 119kts
12-Jul-17 09:19 33.636893 -117.722904 350 6008ft 119kts
12-Jul-17 09:20 33.669552 -117.728404 350 6009ft 118kts
12-Jul-17 09:21 33.700274 -117.741048 337 6010ft 116kts
12-Jul-17 09:22 33.730554 -117.755156 336 6010ft 116kts
12-Jul-17 09:23 33.761924 -117.769894 336 5612ft 126kts
12-Jul-17 09:24 33.796188 -117.779233 355 5043ft 128kts
12-Jul-17 09:25 33.829285 -117.780181 357 5012ft 115kts
12-Jul-17 09:26 33.855172 -117.767210 69 5017ft 113kts
12-Jul-17 09:27 33.865608 -117.731258 71 5017ft 114kts
12-Jul-17 09:28 33.876378 -117.695149 63 4926ft 121kts
12-Jul-17 09:29 33.893934 -117.657523 60 4369ft 133kts
12-Jul-17 09:30 33.912121 -117.618292 60 3781ft 135kts
12-Jul-17 09:31 33.930214 -117.578729 60 3399ft 124kts
12-Jul-17 09:32 33.944435 -117.547671 60 4021ft 115kts
12-Jul-17 09:33 33.960541 -117.512118 60 4009ft 121kts
12-Jul-17 09:34 33.978232 -117.477487 49 3841ft 121kts
12-Jul-17 09:35 34.000230 -117.446400 48 3491ft 122kts
12-Jul-17 09:36 34.021393 -117.414954 49 3125ft 120kts
12-Jul-17 09:37 34.042073 -117.383776 50 2730ft 120kts
12-Jul-17 09:38 34.060956 -117.352383 64 2554ft 107kts
12-Jul-17 09:39 34.069040 -117.324285 72 2346ft 100kts
12-Jul-17 09:40 34.077398 -117.296158 69 1982ft 81kts
12-Jul-17 09:41 34.084139 -117.272300 70 1566ft 72kts
12-Jul-17 09:42 34.090818 -117.249906 70 1183ft 58kts
12-Jul-17 09:43 34.094558 -117.240688 33 1161ft 0kts
12-Jul-17 09:44 34.095139 -117.240290 350 1161ft 11kts
12-Jul-17 09:45 34.096609 -117.241933 0 1161ft 17kts

Navigation Log

Ident Type
Flight plan parsing failed, navigation log unavailable